createdAt,value
2019-01-19T00:01:53.893Z,36.33
2019-01-19T00:04:30.762Z,35.70
2019-01-19T00:06:53.209Z,33.20
2019-01-19T00:09:20.830Z,35.13
2019-01-19T00:12:08.647Z,37.83
2019-01-19T00:14:55.992Z,46.97
2019-01-19T00:17:38.985Z,37.20
2019-01-19T00:20:37.230Z,33.77
2019-01-19T00:23:27.578Z,39.03
2019-01-19T00:26:26.654Z,32.67
2019-01-19T00:28:42.690Z,40.60
2019-01-19T00:30:59.910Z,32.20
2019-01-19T00:33:41.410Z,36.30
2019-01-19T00:36:13.445Z,34.23
2019-01-19T00:38:45.357Z,36.90
2019-01-19T00:41:45.688Z,30.83
2019-01-19T00:44:25.276Z,33.80
2019-01-19T00:47:07.173Z,34.00
2019-01-19T00:49:45.979Z,32.13
2019-01-19T00:52:33.519Z,33.60
2019-01-19T00:55:28.203Z,35.10
2019-01-19T00:57:48.387Z,36.40
2019-01-19T00:59:58.175Z,30.00
2019-01-19T01:02:55.715Z,31.87
2019-01-19T01:05:53.931Z,30.80
2019-01-19T01:08:38.000Z,34.47
2019-01-19T01:11:09.769Z,26.30
2019-01-19T01:13:55.247Z,32.70
2019-01-19T01:16:28.115Z,31.20
2019-01-19T01:19:35.413Z,27.90
2019-01-19T01:22:36.375Z,36.27
2019-01-19T01:25:34.355Z,31.77
2019-01-19T01:28:28.787Z,30.57
2019-01-19T01:30:56.420Z,33.60
2019-01-19T01:33:26.369Z,32.63
2019-01-19T01:36:12.478Z,31.70
2019-01-19T01:38:46.674Z,31.40
2019-01-19T01:41:21.440Z,36.63
2019-01-19T01:43:58.483Z,34.37
2019-01-19T01:46:23.017Z,36.57
2019-01-19T01:48:57.887Z,32.73
2019-01-19T01:51:31.353Z,37.37
2019-01-19T01:54:07.349Z,34.57
2019-01-19T01:56:16.460Z,38.77
2019-01-19T01:58:35.737Z,33.63
2019-01-19T02:01:22.118Z,29.90
2019-01-19T02:04:12.457Z,34.10
2019-01-19T02:06:30.286Z,31.53
2019-01-19T02:09:17.020Z,34.40
2019-01-19T02:11:54.916Z,39.70
2019-01-19T02:14:26.853Z,32.10
2019-01-19T02:17:15.084Z,34.77
2019-01-19T02:19:38.941Z,39.90
2019-01-19T02:22:14.607Z,35.80
2019-01-19T02:24:47.888Z,37.53
2019-01-19T02:27:22.450Z,37.50
2019-01-19T02:29:56.145Z,36.27
2019-01-19T02:32:37.941Z,30.30
2019-01-19T02:35:09.577Z,32.60
2019-01-19T02:37:50.749Z,36.00
2019-01-19T02:40:25.703Z,29.70
2019-01-19T02:42:56.066Z,30.80
2019-01-19T02:45:53.953Z,31.10
2019-01-19T02:48:31.604Z,34.57
2019-01-19T02:50:46.279Z,33.13
2019-01-19T02:53:53.085Z,33.83
2019-01-19T02:56:16.771Z,33.60
2019-01-19T02:59:14.786Z,26.10
2019-01-19T03:01:52.756Z,34.97
2019-01-19T03:04:50.439Z,35.87
2019-01-19T03:07:47.947Z,31.07
2019-01-19T03:10:18.422Z,37.90
2019-01-19T03:13:04.706Z,30.80
2019-01-19T03:16:00.042Z,34.87
2019-01-19T03:18:36.651Z,35.77
2019-01-19T03:21:31.633Z,36.90
2019-01-19T03:24:02.734Z,28.97
2019-01-19T03:26:18.114Z,34.20
2019-01-19T03:29:14.134Z,31.17
2019-01-19T03:31:50.656Z,33.00
2019-01-19T03:34:35.486Z,30.17
2019-01-19T03:37:40.201Z,34.10
2019-01-19T03:40:25.195Z,34.97
2019-01-19T03:42:54.012Z,35.67
2019-01-19T03:45:36.903Z,33.53
2019-01-19T03:48:06.448Z,30.40
2019-01-19T03:50:43.505Z,29.67
2019-01-19T03:53:29.042Z,32.13
2019-01-19T03:56:37.416Z,26.70
2019-01-19T03:59:12.207Z,28.37
2019-01-19T04:02:08.567Z,30.10
2019-01-19T04:04:51.129Z,27.10
2019-01-19T04:07:33.435Z,37.80
2019-01-19T04:10:20.735Z,29.37
2019-01-19T04:12:49.425Z,26.20
2019-01-19T04:15:31.170Z,26.50
2019-01-19T04:18:08.623Z,32.60
2019-01-19T04:20:38.622Z,31.33
2019-01-19T04:22:52.882Z,28.60
2019-01-19T04:25:35.597Z,27.90
2019-01-19T04:27:40.368Z,28.07
2019-01-19T04:29:45.136Z,25.73
2019-01-19T04:31:49.913Z,32.10
2019-01-19T04:33:55.108Z,29.83
2019-01-19T04:35:59.876Z,30.80
2019-01-19T04:38:04.727Z,31.27
2019-01-19T04:40:11.288Z,25.93
2019-01-19T04:42:16.259Z,30.10
2019-01-19T04:44:21.134Z,27.03
2019-01-19T04:46:25.905Z,34.50
2019-01-19T04:48:30.667Z,28.77
2019-01-19T04:50:35.469Z,33.33
2019-01-19T04:52:40.389Z,32.00
2019-01-19T04:54:45.120Z,28.40
2019-01-19T04:56:50.345Z,36.07
2019-01-19T04:58:55.176Z,31.73
2019-01-19T05:01:00.043Z,25.93
2019-01-19T05:03:04.848Z,27.73
2019-01-19T05:05:09.697Z,28.53
2019-01-19T05:07:14.945Z,26.53
2019-01-19T05:09:19.674Z,24.87
2019-01-19T05:11:24.663Z,29.53
2019-01-19T05:13:29.438Z,28.77
2019-01-19T05:15:34.246Z,27.43
2019-01-19T05:17:39.102Z,27.07
2019-01-19T05:19:43.902Z,26.50
2019-01-19T05:21:48.817Z,25.90
2019-01-19T05:23:53.822Z,24.53
2019-01-19T05:25:58.561Z,27.97
2019-01-19T05:28:03.295Z,29.30
2019-01-19T05:30:12.241Z,28.27
2019-01-19T05:32:17.485Z,26.60
2019-01-19T05:34:22.225Z,26.00
2019-01-19T05:36:27.083Z,27.90
2019-01-19T05:38:32.520Z,26.40
2019-01-19T05:40:37.617Z,28.93
2019-01-19T05:42:42.838Z,30.13
2019-01-19T05:44:47.644Z,24.50
2019-01-19T05:46:52.583Z,33.90
2019-01-19T05:48:57.722Z,28.50
2019-01-19T05:51:02.465Z,26.87
2019-01-19T05:53:07.577Z,31.23
2019-01-19T05:55:12.354Z,27.73
2019-01-19T05:57:17.082Z,25.50
2019-01-19T05:59:21.967Z,30.10
2019-01-19T06:01:28.206Z,28.07
2019-01-19T06:03:33.944Z,27.07
2019-01-19T06:05:40.821Z,27.63
2019-01-19T06:07:48.379Z,24.10
2019-01-19T06:09:53.406Z,29.40
2019-01-19T06:11:58.180Z,29.23
2019-01-19T06:14:03.412Z,32.33
2019-01-19T06:16:08.310Z,27.40
2019-01-19T06:18:19.903Z,27.93
2019-01-19T06:20:24.725Z,24.73
2019-01-19T06:22:30.178Z,26.83
2019-01-19T06:24:36.427Z,26.23
2019-01-19T06:26:41.608Z,31.40
2019-01-19T06:28:46.734Z,25.47
2019-01-19T06:30:52.170Z,21.67
2019-01-19T06:32:57.833Z,27.50
2019-01-19T06:35:02.696Z,27.07
2019-01-19T06:37:07.733Z,21.27
2019-01-19T06:39:12.766Z,27.07
2019-01-19T06:41:18.396Z,23.13
2019-01-19T06:43:23.334Z,21.50
2019-01-19T06:45:28.335Z,19.73
2019-01-19T06:47:33.158Z,22.90
2019-01-19T06:53:49.229Z,19.80
2019-01-19T06:59:55.916Z,18.13
2019-01-19T07:02:06.704Z,17.30
2019-01-19T07:04:20.586Z,20.30
2019-01-19T07:07:39.008Z,22.63
2019-01-19T07:09:33.521Z,18.37
2019-01-19T07:11:46.575Z,15.87
2019-01-19T07:13:51.538Z,21.13
2019-01-19T07:16:11.582Z,19.50
2019-01-19T07:18:04.130Z,20.70
2019-01-19T07:20:12.033Z,16.57
2019-01-19T07:22:17.442Z,17.17
2019-01-19T07:24:25.108Z,18.70
2019-01-19T07:26:30.606Z,26.97
2019-01-19T07:28:35.321Z,19.93
2019-01-19T07:30:43.428Z,17.93
2019-01-19T07:33:11.078Z,15.17
2019-01-19T07:35:25.688Z,19.53
2019-01-19T07:37:31.029Z,15.50
2019-01-19T07:39:38.576Z,16.30
2019-01-19T07:41:44.117Z,19.03
2019-01-19T07:44:05.625Z,17.43
2019-01-19T07:46:11.405Z,19.47
2019-01-19T07:48:19.586Z,14.23
2019-01-19T07:50:27.050Z,15.80
2019-01-19T07:52:32.114Z,18.73
2019-01-19T07:54:39.494Z,16.47
2019-01-19T07:56:44.241Z,16.57
2019-01-19T07:58:49.408Z,19.80
2019-01-19T08:00:54.746Z,16.00
2019-01-19T08:03:00.317Z,15.13
2019-01-19T08:05:08.707Z,18.40
2019-01-19T08:07:17.455Z,17.07
2019-01-19T08:09:20.795Z,13.93
2019-01-19T08:11:26.219Z,15.70
2019-01-19T08:13:31.067Z,14.30
2019-01-19T08:15:35.954Z,16.93
2019-01-19T08:17:41.804Z,14.27
2019-01-19T08:19:46.548Z,14.53
2019-01-19T08:21:51.775Z,17.10
2019-01-19T08:23:57.124Z,17.57
2019-01-19T08:26:04.925Z,18.03
2019-01-19T08:28:10.451Z,13.60
2019-01-19T08:30:18.154Z,16.97
2019-01-19T08:32:23.671Z,15.53
2019-01-19T08:34:28.685Z,11.40
2019-01-19T08:36:34.563Z,15.43
2019-01-19T08:38:39.742Z,12.87
2019-01-19T08:40:44.736Z,11.63
2019-01-19T08:42:54.725Z,12.57
2019-01-19T08:44:59.780Z,13.20
2019-01-19T08:47:04.624Z,14.60
2019-01-19T08:49:09.604Z,13.40
2019-01-19T08:51:14.795Z,15.00
2019-01-19T08:53:19.606Z,13.23
2019-01-19T08:55:25.363Z,11.83
2019-01-19T08:57:31.471Z,17.10
2019-01-19T08:59:36.831Z,17.37
2019-01-19T09:01:41.888Z,13.83
2019-01-19T09:03:46.781Z,12.80
2019-01-19T09:05:51.880Z,15.13
2019-01-19T09:07:56.988Z,11.17
2019-01-19T09:10:01.874Z,10.40
2019-01-19T09:12:06.683Z,13.80
2019-01-19T09:14:11.513Z,11.00
2019-01-19T09:16:21.546Z,9.03
2019-01-19T09:18:26.472Z,11.30
2019-01-19T09:20:31.649Z,9.27
2019-01-19T09:22:38.717Z,13.30
2019-01-19T09:24:43.667Z,8.63
2019-01-19T09:26:57.942Z,8.93
2019-01-19T09:29:03.568Z,9.43
2019-01-19T09:31:08.567Z,10.13
2019-01-19T09:33:13.399Z,9.60
2019-01-19T09:35:18.489Z,9.43
2019-01-19T09:37:23.315Z,7.77
2019-01-19T09:39:30.280Z,9.30
2019-01-19T09:41:35.212Z,10.20
2019-01-19T09:43:40.427Z,7.90
2019-01-19T09:45:45.198Z,10.37
2019-01-19T09:47:50.047Z,9.27
2019-01-19T09:49:54.754Z,8.10
2019-01-19T09:51:59.550Z,7.87
2019-01-19T09:54:06.036Z,9.03
2019-01-19T09:56:14.742Z,7.90
2019-01-19T09:58:20.144Z,10.73
2019-01-19T10:00:27.435Z,16.03
2019-01-19T10:02:32.879Z,7.60
2019-01-19T10:04:37.632Z,8.83
2019-01-19T10:06:42.354Z,10.67
2019-01-19T10:08:47.154Z,7.50
2019-01-19T10:10:52.323Z,8.73
2019-01-19T10:12:57.285Z,8.90
2019-01-19T10:15:02.032Z,7.43
2019-01-19T10:17:06.814Z,8.50
2019-01-19T10:19:11.669Z,11.53
2019-01-19T10:21:16.553Z,7.83
2019-01-19T10:23:21.302Z,9.98
2019-01-19T10:25:27.128Z,10.08
2019-01-19T10:27:37.357Z,8.43
2019-01-19T10:29:38.343Z,9.30
2019-01-19T10:31:43.075Z,7.20
2019-01-19T10:33:47.834Z,7.80
2019-01-19T10:35:52.837Z,8.10
2019-01-19T10:37:58.276Z,6.53
2019-01-19T10:40:03.357Z,7.80
2019-01-19T10:42:08.497Z,9.27
2019-01-19T10:44:13.227Z,8.70
2019-01-19T10:46:18.441Z,9.23
2019-01-19T10:48:23.804Z,10.00
2019-01-19T10:50:28.652Z,6.83
2019-01-19T10:52:36.615Z,7.10
2019-01-19T10:54:41.495Z,8.20
2019-01-19T10:56:46.604Z,8.17
2019-01-19T10:58:51.661Z,10.73
2019-01-19T11:00:56.869Z,7.67
2019-01-19T11:03:01.715Z,12.73
2019-01-19T11:05:08.184Z,10.33
2019-01-19T11:07:14.571Z,9.60
2019-01-19T11:12:03.287Z,9.50
2019-01-19T11:14:09.155Z,8.67
2019-01-19T11:16:14.869Z,10.53
2019-01-19T11:18:19.632Z,11.50
2019-01-19T11:20:26.395Z,7.50
2019-01-19T11:22:31.216Z,7.47
2019-01-19T11:24:36.382Z,10.77
2019-01-19T11:26:41.225Z,7.87
2019-01-19T11:28:47.161Z,6.03
2019-01-19T11:30:51.933Z,8.90
2019-01-19T11:32:56.676Z,7.37
2019-01-19T11:35:01.766Z,10.07
2019-01-19T11:37:06.803Z,7.83
2019-01-19T11:39:12.735Z,12.73
2019-01-19T11:41:18.501Z,7.80
2019-01-19T11:43:23.726Z,8.47
2019-01-19T11:45:28.960Z,7.93
2019-01-19T11:47:34.391Z,9.13
2019-01-19T11:50:00.803Z,7.67
2019-01-19T11:52:06.144Z,6.37
2019-01-19T11:54:14.837Z,10.90
2019-01-19T11:56:20.207Z,9.10
2019-01-19T11:58:25.121Z,7.53
2019-01-19T12:00:31.565Z,10.13
2019-01-19T12:02:37.085Z,7.83
2019-01-19T12:04:42.349Z,12.23
2019-01-19T12:06:47.063Z,8.90
2019-01-19T12:08:52.179Z,8.73
2019-01-19T12:10:57.486Z,9.17
2019-01-19T12:13:02.271Z,8.90
2019-01-19T12:15:09.250Z,6.90
2019-01-19T12:17:14.186Z,8.20
2019-01-19T12:19:18.992Z,10.43
2019-01-19T12:21:23.761Z,8.00
2019-01-19T12:23:28.587Z,8.13
2019-01-19T12:25:33.483Z,11.83
2019-01-19T12:27:38.471Z,10.17
2019-01-19T12:29:43.257Z,8.80
2019-01-19T12:31:48.401Z,8.07
2019-01-19T12:33:53.151Z,8.37
2019-01-19T12:35:58.393Z,6.63
2019-01-19T12:38:03.395Z,7.70
2019-01-19T12:40:18.821Z,5.57
2019-01-19T12:42:24.005Z,8.20
2019-01-19T12:44:28.758Z,7.27
2019-01-19T12:46:33.557Z,8.20
2019-01-19T12:48:38.475Z,6.80
2019-01-19T12:50:43.516Z,7.60
2019-01-19T12:52:48.632Z,10.20
2019-01-19T12:54:53.427Z,7.87
2019-01-19T12:56:58.335Z,5.50
2019-01-19T12:59:03.549Z,7.23
2019-01-19T13:01:08.500Z,8.67
2019-01-19T13:03:13.637Z,8.30
2019-01-19T13:05:25.181Z,5.93
2019-01-19T13:07:29.901Z,6.60
2019-01-19T13:09:38.508Z,9.13
2019-01-19T13:12:09.118Z,8.00
2019-01-19T13:14:13.922Z,6.20
2019-01-19T13:16:59.842Z,5.40
2019-01-19T13:19:35.447Z,4.90
2019-01-19T13:22:16.977Z,7.20
2019-01-19T13:24:29.501Z,7.50
2019-01-19T13:27:00.305Z,6.10
2019-01-19T13:29:51.550Z,7.77
2019-01-19T13:32:42.678Z,5.27
2019-01-19T13:35:33.569Z,8.60
2019-01-19T13:38:20.838Z,5.83
2019-01-19T13:41:27.793Z,8.03
2019-01-19T13:44:16.890Z,4.17
2019-01-19T13:47:00.692Z,5.10
2019-01-19T13:49:44.958Z,5.70
2019-01-19T13:52:23.934Z,6.27
2019-01-19T13:55:20.359Z,5.10
2019-01-19T13:58:09.037Z,8.10
2019-01-19T14:01:06.539Z,6.27
2019-01-19T14:03:50.118Z,6.90
2019-01-19T14:06:27.429Z,6.70
2019-01-19T14:08:58.244Z,5.57
2019-01-19T14:11:46.819Z,5.47
2019-01-19T14:14:32.977Z,5.50
2019-01-19T14:17:18.438Z,6.17
2019-01-19T14:20:02.029Z,4.80
2019-01-19T14:22:52.190Z,3.93
2019-01-19T14:25:24.079Z,4.50
2019-01-19T14:28:15.966Z,8.73
2019-01-19T14:31:04.431Z,4.23
2019-01-19T14:33:53.185Z,5.50
2019-01-19T14:36:33.786Z,4.57
2019-01-19T14:39:18.795Z,6.30
2019-01-19T14:41:59.184Z,4.03
2019-01-19T14:44:56.120Z,3.90
2019-01-19T14:47:31.716Z,3.67
2019-01-19T14:50:32.291Z,3.93
2019-01-19T14:53:09.273Z,7.00
2019-01-19T14:55:42.070Z,4.37
2019-01-19T14:58:01.551Z,8.33
2019-01-19T15:00:56.040Z,4.23
2019-01-19T15:03:26.428Z,4.00
2019-01-19T15:06:05.081Z,7.27
2019-01-19T15:08:54.352Z,3.80
2019-01-19T15:11:35.224Z,5.17
2019-01-19T15:14:18.211Z,9.10
2019-01-19T15:17:03.410Z,6.40
2019-01-19T15:20:00.643Z,8.87
2019-01-19T15:22:45.737Z,6.10
2019-01-19T15:25:26.172Z,6.73
2019-01-19T15:28:17.423Z,5.67
2019-01-19T15:30:42.544Z,5.30
2019-01-19T15:33:21.001Z,9.50
2019-01-19T15:36:18.719Z,12.40
2019-01-19T15:38:39.538Z,6.90
2019-01-19T15:41:10.204Z,5.30
2019-01-19T15:43:50.437Z,6.80
2019-01-19T15:46:49.365Z,5.63
2019-01-19T15:49:30.927Z,8.60
2019-01-19T15:52:12.974Z,5.00
2019-01-19T15:54:56.857Z,4.20
2019-01-19T15:57:35.398Z,6.07
2019-01-19T16:00:29.972Z,8.57
2019-01-19T16:03:10.288Z,5.63
2019-01-19T16:05:55.894Z,6.50
2019-01-19T16:08:22.898Z,5.20
2019-01-19T16:11:03.706Z,7.90
2019-01-19T16:14:01.495Z,6.03
2019-01-19T16:16:47.233Z,6.57
2019-01-19T16:19:27.822Z,7.00
2019-01-19T16:22:15.676Z,6.93
2019-01-19T16:24:43.926Z,6.33
2019-01-19T16:27:41.522Z,5.80
2019-01-19T16:30:36.752Z,6.47
2019-01-19T16:33:18.201Z,8.87
2019-01-19T16:35:44.876Z,5.90
2019-01-19T16:38:26.390Z,7.07
2019-01-19T16:41:00.483Z,16.50
2019-01-19T16:43:38.431Z,9.00
2019-01-19T16:46:16.460Z,7.73
2019-01-19T16:49:04.054Z,5.90
2019-01-19T16:52:05.001Z,6.40
2019-01-19T16:54:54.684Z,8.50
2019-01-19T16:57:43.507Z,5.83
2019-01-19T17:00:21.328Z,4.63
2019-01-19T17:03:16.329Z,8.13
2019-01-19T17:06:01.874Z,5.10
2019-01-19T17:08:47.195Z,6.93
2019-01-19T17:11:39.822Z,5.40
2019-01-19T17:14:06.357Z,4.53
2019-01-19T17:16:31.405Z,4.87
2019-01-19T17:19:29.765Z,3.80
2019-01-19T17:22:39.851Z,6.07
2019-01-19T17:25:17.751Z,4.53
2019-01-19T17:27:50.241Z,7.33
2019-01-19T17:30:37.307Z,6.57
2019-01-19T17:32:57.688Z,8.40
2019-01-19T17:35:46.686Z,8.83
2019-01-19T17:38:34.234Z,7.90
2019-01-19T17:41:25.908Z,6.73
2019-01-19T17:44:11.927Z,7.27
2019-01-19T17:47:03.967Z,6.50
2019-01-19T17:49:36.689Z,6.80
2019-01-19T17:52:05.421Z,5.57
2019-01-19T17:54:47.631Z,7.33
2019-01-19T17:57:57.693Z,6.37
2019-01-19T18:00:21.881Z,5.50
2019-01-19T18:02:50.577Z,6.20
2019-01-19T18:05:17.015Z,3.87
2019-01-19T18:08:00.197Z,4.23
2019-01-19T18:10:38.410Z,6.83
2019-01-19T18:13:34.257Z,4.93
2019-01-19T18:16:12.504Z,3.80
2019-01-19T18:19:04.103Z,3.80
2019-01-19T18:21:40.151Z,4.93
2019-01-19T18:24:28.737Z,4.30
2019-01-19T18:27:09.751Z,3.83
2019-01-19T18:30:04.059Z,4.53
2019-01-19T18:32:50.846Z,8.53
2019-01-19T18:35:58.423Z,6.33
2019-01-19T18:38:50.980Z,5.60
2019-01-19T18:41:16.960Z,4.17
2019-01-19T18:43:50.242Z,5.00
2019-01-19T18:46:33.771Z,6.40
2019-01-19T18:49:12.553Z,6.87
2019-01-19T18:51:52.606Z,6.23
2019-01-19T18:54:29.818Z,6.07
2019-01-19T18:57:02.107Z,6.50
2019-01-19T18:59:43.233Z,7.97
2019-01-19T19:02:30.560Z,11.10
2019-01-19T19:05:15.471Z,5.67
2019-01-19T19:08:03.827Z,7.07
2019-01-19T19:10:40.963Z,5.87
2019-01-19T19:13:18.613Z,5.27
2019-01-19T19:16:20.249Z,5.87
2019-01-19T19:18:57.814Z,5.20
2019-01-19T19:21:24.038Z,8.27
2019-01-19T19:24:02.175Z,6.67
2019-01-19T19:26:45.381Z,5.97
2019-01-19T19:29:40.221Z,4.50
2019-01-19T19:32:38.350Z,6.07
2019-01-19T19:35:32.434Z,9.30
2019-01-19T19:37:59.803Z,8.47
2019-01-19T19:40:41.432Z,10.17
2019-01-19T19:43:20.244Z,6.30
2019-01-19T19:45:59.009Z,6.43
2019-01-19T19:48:56.962Z,8.93
2019-01-19T19:59:03.076Z,10.10
2019-01-19T20:01:08.053Z,10.87
2019-01-19T20:03:28.495Z,8.87
2019-01-19T20:05:43.711Z,8.17
2019-01-19T20:07:49.240Z,12.27
2019-01-19T20:09:55.943Z,7.73
2019-01-19T20:12:07.271Z,7.93
2019-01-19T20:14:50.978Z,8.20
2019-01-19T20:16:59.417Z,7.90
2019-01-19T20:19:04.484Z,11.70
2019-01-19T20:21:09.393Z,8.20
2019-01-19T20:23:14.319Z,12.43
2019-01-19T20:25:27.251Z,7.50
2019-01-19T20:27:48.420Z,9.13
2019-01-19T20:29:54.949Z,11.23
2019-01-19T20:32:01.236Z,6.67
2019-01-19T20:34:06.804Z,11.20
2019-01-19T20:36:14.376Z,10.50
2019-01-19T20:38:26.496Z,7.73
2019-01-19T20:40:32.102Z,11.20
2019-01-19T20:42:46.864Z,9.53
2019-01-19T20:44:51.947Z,9.63
2019-01-19T20:46:57.828Z,8.43
2019-01-19T20:49:04.499Z,7.17
2019-01-19T20:51:09.823Z,6.97
2019-01-19T20:53:15.077Z,8.10
2019-01-19T20:55:20.693Z,10.10
2019-01-19T20:57:56.107Z,9.23
2019-01-19T20:59:56.265Z,13.30
2019-01-19T21:02:01.492Z,9.13
2019-01-19T21:04:06.778Z,9.07
2019-01-19T21:06:12.199Z,9.30
2019-01-19T21:10:22.878Z,7.83
2019-01-19T21:12:27.718Z,10.63
2019-01-19T21:14:35.236Z,14.07
2019-01-19T21:17:00.954Z,7.93
2019-01-19T21:19:48.679Z,13.13
2019-01-19T21:22:07.771Z,12.00
2019-01-19T21:24:20.050Z,13.23
2019-01-19T21:26:54.205Z,11.50
2019-01-19T21:29:00.730Z,10.03
2019-01-19T21:31:10.903Z,10.20
2019-01-19T21:34:06.321Z,11.37
2019-01-19T21:36:27.032Z,9.63
2019-01-19T21:38:33.075Z,15.17
2019-01-19T21:40:39.383Z,7.53
2019-01-19T21:42:46.709Z,11.83
2019-01-19T21:44:51.869Z,10.30
2019-01-19T21:46:59.731Z,10.43
2019-01-19T21:49:04.684Z,11.53
2019-01-19T21:51:12.574Z,9.17
2019-01-19T21:53:21.059Z,10.70
2019-01-19T21:55:57.732Z,9.50
2019-01-19T21:58:02.497Z,8.70
2019-01-19T22:00:38.953Z,9.70
2019-01-19T22:02:43.896Z,11.53
2019-01-19T22:05:06.479Z,9.00
2019-01-19T22:07:11.491Z,9.43
2019-01-19T22:09:16.560Z,10.63
2019-01-19T22:11:58.909Z,8.83
2019-01-19T22:14:14.450Z,10.40
2019-01-19T22:16:19.365Z,11.43
2019-01-19T22:18:24.181Z,9.93
2019-01-19T22:20:29.234Z,9.50
2019-01-19T22:22:34.185Z,12.17
2019-01-19T22:24:39.436Z,10.20
2019-01-19T22:26:45.804Z,14.00
2019-01-19T22:28:50.745Z,10.63
2019-01-19T22:30:58.789Z,8.10
2019-01-19T22:33:03.693Z,11.77
2019-01-19T22:35:09.505Z,8.90
2019-01-19T22:37:14.314Z,11.00
2019-01-19T22:39:19.176Z,10.00
2019-01-19T22:41:24.251Z,13.47
2019-01-19T22:43:33.886Z,8.73
2019-01-19T22:45:39.158Z,9.90
2019-01-19T22:48:03.060Z,11.63
2019-01-19T22:50:11.169Z,8.17
2019-01-19T22:52:16.085Z,7.63
2019-01-19T22:54:21.191Z,8.50
2019-01-19T22:56:25.981Z,7.40
2019-01-19T22:58:30.860Z,7.30
2019-01-19T23:00:59.183Z,7.27
2019-01-19T23:03:04.246Z,7.80
2019-01-19T23:05:09.776Z,9.33
2019-01-19T23:07:14.623Z,8.67
2019-01-19T23:09:19.558Z,8.20
2019-01-19T23:11:25.395Z,9.70
2019-01-19T23:13:33.663Z,7.67
2019-01-19T23:15:38.836Z,6.77
2019-01-19T23:17:44.339Z,7.40
2019-01-19T23:19:49.497Z,7.27
2019-01-19T23:21:54.276Z,11.00
2019-01-19T23:23:59.079Z,9.03
2019-01-19T23:26:04.237Z,11.50
2019-01-19T23:28:09.078Z,11.13
2019-01-19T23:30:14.605Z,7.90
2019-01-19T23:32:19.342Z,10.20
2019-01-19T23:34:24.155Z,7.90
2019-01-19T23:36:28.943Z,8.70
2019-01-19T23:38:34.108Z,9.47
2019-01-19T23:40:38.902Z,14.90
2019-01-19T23:42:47.313Z,7.90
2019-01-19T23:44:50.199Z,7.43
2019-01-19T23:46:55.134Z,7.40
2019-01-19T23:49:00.230Z,11.93
2019-01-19T23:51:05.487Z,8.30
2019-01-19T23:53:10.280Z,8.80
2019-01-19T23:55:15.409Z,6.40
2019-01-19T23:57:20.369Z,8.80
2019-01-19T23:59:25.142Z,6.03
